createdAt,value
2018-03-12T00:02:26.615Z,14.90
2018-03-12T00:04:55.474Z,14.95
2018-03-12T00:07:23.892Z,14.85
2018-03-12T00:09:52.266Z,14.81
2018-03-12T00:12:20.828Z,14.73
2018-03-12T00:14:49.384Z,14.64
2018-03-12T00:17:17.923Z,14.71
2018-03-12T00:19:46.418Z,14.71
2018-03-12T00:22:32.393Z,14.65
2018-03-12T00:25:01.153Z,14.62
2018-03-12T00:27:29.521Z,14.62
2018-03-12T00:29:58.043Z,14.63
2018-03-12T00:32:26.453Z,14.58
2018-03-12T00:34:54.812Z,14.62
2018-03-12T00:37:23.288Z,14.60
2018-03-12T00:39:51.880Z,14.47
2018-03-12T00:42:20.273Z,14.41
2018-03-12T00:44:49.562Z,14.47
2018-03-12T00:47:19.367Z,14.49
2018-03-12T00:49:48.544Z,14.45
2018-03-12T00:52:16.938Z,14.29
2018-03-12T00:54:45.328Z,14.21
2018-03-12T00:57:14.615Z,14.23
2018-03-12T00:59:43.018Z,14.26
2018-03-12T01:02:11.863Z,14.07
2018-03-12T01:04:40.177Z,14.18
2018-03-12T01:07:08.488Z,14.27
2018-03-12T01:09:37.339Z,14.23
2018-03-12T01:12:05.632Z,14.10
2018-03-12T01:14:34.740Z,14.08
2018-03-12T01:17:03.107Z,14.03
2018-03-12T01:19:32.219Z,13.60
2018-03-12T01:22:00.555Z,13.36
2018-03-12T01:24:28.929Z,13.45
2018-03-12T01:26:57.257Z,13.54
2018-03-12T01:29:25.589Z,13.55
2018-03-12T01:31:54.037Z,13.57
2018-03-12T01:34:28.128Z,13.57
2018-03-12T01:36:56.499Z,13.75
2018-03-12T01:39:24.831Z,13.76
2018-03-12T01:41:53.179Z,13.77
2018-03-12T01:44:21.566Z,13.80
2018-03-12T01:46:49.897Z,13.87
2018-03-12T01:49:18.993Z,13.97
2018-03-12T01:51:47.630Z,13.85
2018-03-12T01:54:15.996Z,13.94
2018-03-12T01:56:44.345Z,13.86
2018-03-12T01:59:13.484Z,13.77
2018-03-12T02:01:41.833Z,13.78
2018-03-12T02:04:10.155Z,13.79
2018-03-12T02:06:39.260Z,13.76
2018-03-12T02:09:07.604Z,13.72
2018-03-12T02:11:35.934Z,13.78
2018-03-12T02:14:04.492Z,13.76
2018-03-12T02:16:32.824Z,13.65
2018-03-12T02:19:01.909Z,13.64
2018-03-12T02:21:31.033Z,13.64
2018-03-12T02:23:59.355Z,13.64
2018-03-12T02:26:27.677Z,13.48
2018-03-12T02:28:56.043Z,13.70
2018-03-12T02:31:25.126Z,13.73
2018-03-12T02:33:53.455Z,13.63
2018-03-12T02:36:22.051Z,13.60
2018-03-12T02:38:50.394Z,13.60
2018-03-12T02:41:18.746Z,13.57
2018-03-12T02:43:47.108Z,13.72
2018-03-12T02:46:15.456Z,13.64
2018-03-12T02:48:43.801Z,13.50
2018-03-12T02:51:12.176Z,13.48
2018-03-12T02:53:41.276Z,13.48
2018-03-12T02:56:09.688Z,13.48
2018-03-12T02:58:38.112Z,13.39
2018-03-12T03:01:07.222Z,13.55
2018-03-12T03:03:35.589Z,13.54
2018-03-12T03:06:03.977Z,13.43
2018-03-12T03:08:32.302Z,13.52
2018-03-12T03:11:00.642Z,13.48
2018-03-12T03:13:29.764Z,13.43
2018-03-12T03:15:58.080Z,13.12
2018-03-12T03:18:26.416Z,12.94
2018-03-12T03:20:54.865Z,13.02
2018-03-12T03:23:23.191Z,13.09
2018-03-12T03:25:51.489Z,13.32
2018-03-12T03:28:19.843Z,13.34
2018-03-12T03:30:48.143Z,13.34
2018-03-12T03:33:16.482Z,13.17
2018-03-12T03:35:44.881Z,13.38
2018-03-12T03:38:13.216Z,13.19
2018-03-12T03:40:42.333Z,13.40
2018-03-12T03:43:11.830Z,13.50
2018-03-12T03:45:40.148Z,13.53
2018-03-12T03:48:08.489Z,13.38
2018-03-12T03:50:37.617Z,13.33
2018-03-12T03:53:05.963Z,13.28
2018-03-12T03:55:34.309Z,13.22
2018-03-12T03:58:02.714Z,13.19
2018-03-12T04:00:31.060Z,13.32
2018-03-12T04:02:59.401Z,13.23
2018-03-12T04:05:28.054Z,13.09
2018-03-12T04:07:57.164Z,13.04
2018-03-12T04:10:25.488Z,13.13
2018-03-12T04:12:53.843Z,13.10
2018-03-12T04:15:22.234Z,12.99
2018-03-12T04:17:50.565Z,12.98
2018-03-12T04:20:18.891Z,13.04
2018-03-12T04:22:47.196Z,13.19
2018-03-12T04:25:15.521Z,13.22
2018-03-12T04:27:44.100Z,13.32
2018-03-12T04:30:13.182Z,13.43
2018-03-12T04:32:42.270Z,13.42
2018-03-12T04:35:10.597Z,13.57
2018-03-12T04:37:38.926Z,13.62
2018-03-12T04:40:07.234Z,13.51
2018-03-12T04:42:35.602Z,13.58
2018-03-12T04:45:04.677Z,13.60
2018-03-12T04:47:33.043Z,13.56
2018-03-12T04:50:01.497Z,13.64
2018-03-12T04:52:29.838Z,13.52
2018-03-12T04:54:58.931Z,13.30
2018-03-12T04:57:28.018Z,13.46
2018-03-12T04:59:57.090Z,13.41
2018-03-12T05:02:25.426Z,13.25
2018-03-12T05:04:53.778Z,13.25
2018-03-12T05:07:22.888Z,13.22
2018-03-12T05:09:51.241Z,13.22
2018-03-12T05:12:20.023Z,13.20
2018-03-12T05:14:48.336Z,13.30
2018-03-12T05:17:16.664Z,13.39
2018-03-12T05:19:45.025Z,13.33
2018-03-12T05:22:13.344Z,13.29
2018-03-12T05:24:41.706Z,13.03
2018-03-12T05:27:10.103Z,13.09
2018-03-12T05:29:39.189Z,13.16
2018-03-12T05:32:07.511Z,13.16
2018-03-12T05:34:35.926Z,13.17
2018-03-12T05:37:04.269Z,13.25
2018-03-12T05:39:32.597Z,13.29
2018-03-12T05:42:00.932Z,13.31
2018-03-12T05:44:29.267Z,13.46
2018-03-12T05:46:57.569Z,13.41
2018-03-12T05:49:25.926Z,13.41
2018-03-12T05:51:55.023Z,13.30
2018-03-12T05:54:24.194Z,13.44
2018-03-12T05:56:52.699Z,13.45
2018-03-12T05:59:21.054Z,13.30
2018-03-12T06:01:49.368Z,12.99
2018-03-12T06:04:17.796Z,12.89
2018-03-12T06:06:46.134Z,12.79
2018-03-12T06:09:17.120Z,12.88
2018-03-12T06:11:45.491Z,12.91
2018-03-12T06:14:13.848Z,12.95
2018-03-12T06:16:42.196Z,13.07
2018-03-12T06:19:11.462Z,13.18
2018-03-12T06:21:39.788Z,13.29
2018-03-12T06:24:08.120Z,13.28
2018-03-12T06:26:36.457Z,13.28
2018-03-12T06:29:04.810Z,13.12
2018-03-12T06:31:33.919Z,13.17
2018-03-12T06:34:03.049Z,13.27
2018-03-12T06:36:31.420Z,13.17
2018-03-12T06:38:59.722Z,13.14
2018-03-12T06:41:28.461Z,13.10
2018-03-12T06:43:56.801Z,13.31
2018-03-12T06:46:25.132Z,13.31
2018-03-12T06:48:53.525Z,13.35
2018-03-12T06:51:21.834Z,13.40
2018-03-12T06:53:50.140Z,13.41
2018-03-12T06:56:18.463Z,13.20
2018-03-12T06:58:46.762Z,13.20
2018-03-12T07:01:15.085Z,13.30
2018-03-12T07:03:44.625Z,13.22
2018-03-12T07:06:12.960Z,13.25
2018-03-12T07:08:41.260Z,13.31
2018-03-12T07:11:09.606Z,13.30
2018-03-12T07:13:37.918Z,13.33
2018-03-12T07:16:06.262Z,13.27
2018-03-12T07:18:34.603Z,13.38
2018-03-12T07:21:02.953Z,13.43
2018-03-12T07:23:31.306Z,13.46
2018-03-12T07:26:00.522Z,13.48
2018-03-12T07:28:28.872Z,13.54
2018-03-12T07:30:57.197Z,13.62
2018-03-12T07:33:25.561Z,13.74
2018-03-12T07:35:53.865Z,13.74
2018-03-12T07:38:22.203Z,13.64
2018-03-12T07:40:51.349Z,13.62
2018-03-12T07:43:19.683Z,13.65
2018-03-12T07:45:48.363Z,13.67
2018-03-12T07:48:17.060Z,13.77
2018-03-12T07:50:45.374Z,13.81
2018-03-12T07:53:13.688Z,13.67
2018-03-12T07:55:42.024Z,13.60
2018-03-12T07:58:10.341Z,13.32
2018-03-12T08:00:38.692Z,13.48
2018-03-12T08:03:07.033Z,13.70
2018-03-12T08:05:36.150Z,13.79
2018-03-12T08:08:04.493Z,13.47
2018-03-12T08:10:33.990Z,13.28
2018-03-12T08:13:02.308Z,13.47
2018-03-12T08:15:30.630Z,13.53
2018-03-12T08:17:59.444Z,13.58
2018-03-12T08:20:27.781Z,13.47
2018-03-12T08:22:56.099Z,13.44
2018-03-12T08:25:24.462Z,13.46
2018-03-12T08:27:52.785Z,13.49
2018-03-12T08:30:21.108Z,13.54
2018-03-12T08:32:50.147Z,13.57
2018-03-12T08:35:18.500Z,13.66
2018-03-12T08:37:47.613Z,13.57
2018-03-12T08:40:16.715Z,13.50
2018-03-12T08:42:45.827Z,13.45
2018-03-12T08:45:14.157Z,13.45
2018-03-12T08:47:42.504Z,13.37
2018-03-12T08:50:10.845Z,13.47
2018-03-12T08:52:39.953Z,13.42
2018-03-12T08:55:08.496Z,13.36
2018-03-12T08:57:36.901Z,13.62
2018-03-12T09:00:06.005Z,13.68
2018-03-12T09:02:35.161Z,13.73
2018-03-12T09:05:03.516Z,13.64
2018-03-12T09:07:31.855Z,13.52
2018-03-12T09:10:00.973Z,13.79
2018-03-12T09:12:29.282Z,13.91
2018-03-12T09:14:57.611Z,13.98
2018-03-12T09:17:26.285Z,14.07
2018-03-12T09:19:54.621Z,14.01
2018-03-12T09:22:22.936Z,14.21
2018-03-12T09:24:51.370Z,14.21
2018-03-12T09:27:20.397Z,14.22
2018-03-12T09:29:48.738Z,14.34
2018-03-12T09:32:17.069Z,14.26
2018-03-12T09:34:45.410Z,14.48
2018-03-12T09:37:13.756Z,14.53
2018-03-12T09:39:42.242Z,14.59
2018-03-12T09:42:10.579Z,14.51
2018-03-12T09:44:38.889Z,14.57
2018-03-12T09:47:07.220Z,14.52
2018-03-12T09:49:35.561Z,14.51
2018-03-12T09:52:03.874Z,14.63
2018-03-12T09:54:32.232Z,14.74
2018-03-12T09:57:00.563Z,14.74
2018-03-12T09:59:28.912Z,14.87
2018-03-12T10:01:57.308Z,14.88
2018-03-12T10:04:25.884Z,15.09
2018-03-12T10:06:54.228Z,15.22
2018-03-12T10:09:22.607Z,15.29
2018-03-12T10:11:50.922Z,15.02
2018-03-12T10:14:19.301Z,14.97
2018-03-12T10:16:47.638Z,15.16
2018-03-12T10:19:15.941Z,15.23
2018-03-12T10:21:44.314Z,15.17
2018-03-12T10:24:12.713Z,15.18
2018-03-12T10:26:41.046Z,15.21
2018-03-12T10:29:09.394Z,15.14
2018-03-12T10:31:37.749Z,15.26
2018-03-12T10:34:06.174Z,15.29
2018-03-12T10:36:34.559Z,15.42
2018-03-12T10:39:02.913Z,15.41
2018-03-12T10:41:32.008Z,15.38
2018-03-12T10:44:01.100Z,15.24
2018-03-12T10:46:29.777Z,15.34
2018-03-12T10:48:58.099Z,15.21
2018-03-12T10:51:26.437Z,15.51
2018-03-12T10:53:55.001Z,15.38
2018-03-12T10:56:23.327Z,15.45
2018-03-12T10:58:51.655Z,15.46
2018-03-12T11:01:25.429Z,15.45
2018-03-12T11:03:53.748Z,15.49
2018-03-12T11:06:23.723Z,15.49
2018-03-12T11:08:52.493Z,15.59
2018-03-12T11:11:21.578Z,15.61
2018-03-12T11:13:49.907Z,15.68
2018-03-12T11:16:18.276Z,15.55
2018-03-12T11:18:46.576Z,15.47
2018-03-12T11:21:14.899Z,15.54
2018-03-12T11:23:44.012Z,15.56
2018-03-12T11:26:12.338Z,15.52
2018-03-12T11:28:40.662Z,15.61
2018-03-12T11:31:09.060Z,15.73
2018-03-12T11:33:37.376Z,15.88
2018-03-12T11:36:05.708Z,16.04
2018-03-12T11:38:34.054Z,16.06
2018-03-12T11:41:02.410Z,16.00
2018-03-12T11:43:30.759Z,16.08
2018-03-12T11:45:59.168Z,16.14
2018-03-12T11:48:27.494Z,16.03
2018-03-12T11:50:55.818Z,16.20
2018-03-12T11:53:24.353Z,16.26
2018-03-12T11:55:52.661Z,16.21
2018-03-12T11:58:20.979Z,16.19
2018-03-12T12:00:49.334Z,16.18
2018-03-12T12:03:17.657Z,16.27
2018-03-12T12:05:46.010Z,16.33
2018-03-12T12:08:14.341Z,16.22
2018-03-12T12:10:42.656Z,16.28
2018-03-12T12:13:11.007Z,16.14
2018-03-12T12:15:39.523Z,16.13
2018-03-12T12:18:07.856Z,16.16
2018-03-12T12:20:36.186Z,16.31
2018-03-12T12:23:04.547Z,16.32
2018-03-12T12:25:32.878Z,16.32
2018-03-12T12:28:01.216Z,16.38
2018-03-12T12:30:29.589Z,16.45
2018-03-12T12:32:57.927Z,16.37
2018-03-12T12:35:26.243Z,16.32
2018-03-12T12:37:55.219Z,16.28
2018-03-12T12:40:23.555Z,16.28
2018-03-12T12:42:51.901Z,16.32
2018-03-12T12:45:20.265Z,16.23
2018-03-12T12:47:48.586Z,16.23
2018-03-12T12:50:17.690Z,16.12
2018-03-12T12:52:46.031Z,15.94
2018-03-12T12:55:14.375Z,16.03
2018-03-12T12:57:42.704Z,16.08
2018-03-12T13:00:12.001Z,16.13
2018-03-12T13:02:40.332Z,16.17
2018-03-12T13:05:08.647Z,16.15
2018-03-12T13:07:37.004Z,16.03
2018-03-12T13:10:05.412Z,16.02
2018-03-12T13:12:33.740Z,16.08
2018-03-12T13:15:02.132Z,16.08
2018-03-12T13:17:30.439Z,16.26
2018-03-12T13:19:58.756Z,16.26
2018-03-12T13:22:27.188Z,16.27
2018-03-12T13:24:55.572Z,16.16
2018-03-12T13:27:23.892Z,16.39
2018-03-12T13:29:53.033Z,16.30
2018-03-12T13:32:21.421Z,16.36
2018-03-12T13:34:49.737Z,16.14
2018-03-12T13:37:18.839Z,16.05
2018-03-12T13:39:47.938Z,16.05
2018-03-12T13:42:16.285Z,15.77
2018-03-12T13:44:44.836Z,15.76
2018-03-12T13:47:13.138Z,15.88
2018-03-12T13:49:41.452Z,15.83
2018-03-12T13:52:10.927Z,15.69
2018-03-12T13:54:39.235Z,15.65
2018-03-12T13:57:08.319Z,15.62
2018-03-12T13:59:37.575Z,15.41
2018-03-12T14:02:07.186Z,15.31
2018-03-12T14:04:35.538Z,15.40
2018-03-12T14:07:03.957Z,15.13
2018-03-12T14:09:32.341Z,15.30
2018-03-12T14:12:00.684Z,15.33
2018-03-12T14:14:29.049Z,15.32
2018-03-12T14:16:57.384Z,15.60
2018-03-12T14:19:25.705Z,15.52
2018-03-12T14:21:54.047Z,15.63
2018-03-12T14:24:22.375Z,15.72
2018-03-12T14:26:50.692Z,15.84
2018-03-12T14:29:19.349Z,15.86
2018-03-12T14:31:47.726Z,15.72
2018-03-12T14:34:16.019Z,15.82
2018-03-12T14:36:44.351Z,15.88
2018-03-12T14:39:13.429Z,15.80
2018-03-12T14:41:41.776Z,15.70
2018-03-12T14:44:10.195Z,15.69
2018-03-12T14:46:38.564Z,15.82
2018-03-12T14:49:07.667Z,15.54
2018-03-12T14:51:36.865Z,15.45
2018-03-12T14:54:05.177Z,15.66
2018-03-12T14:56:33.484Z,15.80
2018-03-12T14:59:01.827Z,15.62
2018-03-12T15:01:30.162Z,15.76
2018-03-12T15:03:58.493Z,15.90
2018-03-12T15:06:26.834Z,15.88
2018-03-12T15:08:55.931Z,15.96
2018-03-12T15:11:25.032Z,16.07
2018-03-12T15:13:54.219Z,15.94
2018-03-12T15:16:22.541Z,15.98
2018-03-12T15:18:50.881Z,15.93
2018-03-12T15:21:20.040Z,15.79
2018-03-12T15:23:48.350Z,15.51
2018-03-12T15:26:16.673Z,15.47
2018-03-12T15:28:45.031Z,15.48
2018-03-12T15:31:13.382Z,15.61
2018-03-12T15:33:41.686Z,15.66
2018-03-12T15:36:10.109Z,15.43
2018-03-12T15:38:38.441Z,15.49
2018-03-12T15:41:06.756Z,15.41
2018-03-12T15:43:35.100Z,15.52
2018-03-12T15:46:04.203Z,15.65
2018-03-12T15:48:32.543Z,15.54
2018-03-12T15:51:00.888Z,15.61
2018-03-12T15:53:29.220Z,15.61
2018-03-12T15:55:58.310Z,15.68
2018-03-12T15:58:27.489Z,15.59
2018-03-12T16:00:55.808Z,15.46
2018-03-12T16:03:24.117Z,15.45
2018-03-12T16:05:52.458Z,15.58
2018-03-12T16:08:21.610Z,15.68
2018-03-12T16:10:49.970Z,15.55
2018-03-12T16:13:18.313Z,15.60
2018-03-12T16:15:47.422Z,15.60
2018-03-12T16:18:15.791Z,15.67
2018-03-12T16:20:44.381Z,15.54
2018-03-12T16:23:13.835Z,15.54
2018-03-12T16:25:42.258Z,15.49
2018-03-12T16:28:10.638Z,15.43
2018-03-12T16:30:38.978Z,15.47
2018-03-12T16:33:07.328Z,15.48
2018-03-12T16:35:35.676Z,15.42
2018-03-12T16:38:04.004Z,15.32
2018-03-12T16:40:32.347Z,15.13
2018-03-12T16:43:00.803Z,15.06
2018-03-12T16:45:29.141Z,15.12
2018-03-12T16:47:57.488Z,15.25
2018-03-12T16:50:25.838Z,15.07
2018-03-12T16:52:54.985Z,15.20
2018-03-12T16:55:23.280Z,15.29
2018-03-12T16:57:51.712Z,15.34
2018-03-12T17:00:20.078Z,15.38
2018-03-12T17:02:49.229Z,15.39
2018-03-12T17:05:17.995Z,15.28
2018-03-12T17:07:46.333Z,15.14
2018-03-12T17:10:15.420Z,15.04
2018-03-12T17:12:43.779Z,15.19
2018-03-12T17:15:12.132Z,15.12
2018-03-12T17:17:40.455Z,15.16
2018-03-12T17:20:08.842Z,15.25
2018-03-12T17:22:37.923Z,15.30
2018-03-12T17:25:06.292Z,15.24
2018-03-12T17:27:34.943Z,15.33
2018-03-12T17:30:03.297Z,15.41
2018-03-12T17:32:31.725Z,15.29
2018-03-12T17:35:00.077Z,15.11
2018-03-12T17:37:28.410Z,15.05
2018-03-12T17:39:56.749Z,14.98
2018-03-12T17:42:25.127Z,15.05
2018-03-12T17:44:53.493Z,14.91
2018-03-12T17:47:21.845Z,14.72
2018-03-12T17:49:51.238Z,14.76
2018-03-12T17:52:19.545Z,14.65
2018-03-12T17:54:47.875Z,14.69
2018-03-12T17:57:16.241Z,14.74
2018-03-12T17:59:44.583Z,14.80
2018-03-12T18:02:12.957Z,14.63
2018-03-12T18:04:41.335Z,14.64
2018-03-12T18:07:09.661Z,14.72
2018-03-12T18:09:38.017Z,14.80
2018-03-12T18:12:06.757Z,14.62
2018-03-12T18:14:35.924Z,14.61
2018-03-12T18:17:04.293Z,14.75
2018-03-12T18:19:32.641Z,14.45
2018-03-12T18:22:00.968Z,14.49
2018-03-12T18:24:29.294Z,14.53
2018-03-12T18:26:57.639Z,14.55
2018-03-12T18:29:26.049Z,14.59
2018-03-12T18:31:54.375Z,14.61
2018-03-12T18:34:22.932Z,14.42
2018-03-12T18:36:51.276Z,14.37
2018-03-12T18:39:20.455Z,14.09
2018-03-12T18:41:48.902Z,14.03
2018-03-12T18:44:17.235Z,14.20
2018-03-12T18:46:45.574Z,14.36
2018-03-12T18:49:13.926Z,14.44
2018-03-12T18:51:42.266Z,14.50
2018-03-12T18:54:11.351Z,14.62
2018-03-12T18:56:40.613Z,14.50
2018-03-12T18:59:08.953Z,14.56
2018-03-12T19:01:38.026Z,14.47
2018-03-12T19:04:06.387Z,14.33
2018-03-12T19:06:34.717Z,14.34
2018-03-12T19:09:03.027Z,14.22
2018-03-12T19:11:31.550Z,14.28
2018-03-12T19:13:59.857Z,14.43
2018-03-12T19:16:28.215Z,14.23
2018-03-12T19:18:57.369Z,14.25
2018-03-12T19:21:25.699Z,14.36
2018-03-12T19:23:54.094Z,14.36
2018-03-12T19:26:22.486Z,14.36
2018-03-12T19:28:50.858Z,14.29
2018-03-12T19:31:19.185Z,14.20
2018-03-12T19:33:49.285Z,14.12
2018-03-12T19:36:17.612Z,14.11
2018-03-12T19:38:45.958Z,14.22
2018-03-12T19:41:14.380Z,14.17
2018-03-12T19:43:42.718Z,14.15
2018-03-12T19:46:11.224Z,14.24
2018-03-12T19:48:40.366Z,14.14
2018-03-12T19:51:08.692Z,14.09
2018-03-12T19:53:37.784Z,14.00
2018-03-12T19:56:06.176Z,13.98
2018-03-12T19:58:35.273Z,13.84
2018-03-12T20:01:04.409Z,13.85
2018-03-12T20:03:33.058Z,13.79
2018-03-12T20:06:04.097Z,13.85
2018-03-12T20:08:38.424Z,13.82
2018-03-12T20:11:06.770Z,13.90
2018-03-12T20:13:37.734Z,13.92
2018-03-12T20:16:18.023Z,13.99
2018-03-12T20:18:46.361Z,13.90
2018-03-12T20:21:15.453Z,13.86
2018-03-12T20:23:44.027Z,13.87
2018-03-12T20:26:12.426Z,13.90
2018-03-12T20:28:40.704Z,13.96
2018-03-12T20:31:09.103Z,13.98
2018-03-12T20:33:37.422Z,14.06
2018-03-12T20:36:05.744Z,14.06
2018-03-12T20:38:34.116Z,14.13
2018-03-12T20:41:03.204Z,14.23
2018-03-12T20:43:31.536Z,14.03
2018-03-12T20:46:00.093Z,13.99
2018-03-12T20:48:28.409Z,14.01
2018-03-12T20:50:56.730Z,14.02
2018-03-12T20:53:25.898Z,14.04
2018-03-12T20:55:54.277Z,13.97
2018-03-12T20:58:22.605Z,13.79
2018-03-12T21:00:51.253Z,13.64
2018-03-12T21:03:19.597Z,13.38
2018-03-12T21:05:47.941Z,13.57
2018-03-12T21:08:16.647Z,13.49
2018-03-12T21:10:44.973Z,13.53
2018-03-12T21:13:13.286Z,13.56
2018-03-12T21:15:42.378Z,13.38
2018-03-12T21:18:11.441Z,13.35
2018-03-12T21:20:39.748Z,13.26
2018-03-12T21:23:08.097Z,13.31
2018-03-12T21:25:36.433Z,13.36
2018-03-12T21:28:04.763Z,13.16
2018-03-12T21:30:34.074Z,12.92
2018-03-12T21:33:02.394Z,13.16
2018-03-12T21:35:30.705Z,13.14
2018-03-12T21:37:59.312Z,13.12
2018-03-12T21:40:27.630Z,13.16
2018-03-12T21:42:55.999Z,13.15
2018-03-12T21:45:24.353Z,13.20
2018-03-12T21:47:53.442Z,13.04
2018-03-12T21:50:21.866Z,13.13
2018-03-12T21:52:50.338Z,13.18
2018-03-12T21:55:18.685Z,13.06
2018-03-12T21:57:47.046Z,13.02
2018-03-12T22:00:15.413Z,12.94
2018-03-12T22:02:43.755Z,13.16
2018-03-12T22:05:12.094Z,13.19
2018-03-12T22:07:40.543Z,13.20
2018-03-12T22:10:09.131Z,13.24
2018-03-12T22:12:37.585Z,13.22
2018-03-12T22:15:07.278Z,13.24
2018-03-12T22:17:35.804Z,12.94
2018-03-12T22:20:04.197Z,12.78
2018-03-12T22:22:32.576Z,13.03
2018-03-12T22:25:00.948Z,13.26
2018-03-12T22:27:29.272Z,13.44
2018-03-12T22:29:58.379Z,13.65
2018-03-12T22:32:26.700Z,13.52
2018-03-12T22:34:55.068Z,13.54
2018-03-12T22:37:23.501Z,13.53
2018-03-12T22:39:52.602Z,13.65
2018-03-12T22:42:21.729Z,13.83
2018-03-12T22:44:50.898Z,13.77
2018-03-12T22:47:19.985Z,13.91
2018-03-12T22:49:49.105Z,14.04
2018-03-12T22:52:17.793Z,14.04
2018-03-12T22:54:46.158Z,13.97
2018-03-12T22:57:15.243Z,13.74
2018-03-12T22:59:44.467Z,13.23
2018-03-12T23:02:12.808Z,13.12
2018-03-12T23:04:41.158Z,13.11
2018-03-12T23:07:09.504Z,13.48
2018-03-12T23:09:38.148Z,13.60
2018-03-12T23:12:07.253Z,13.93
2018-03-12T23:14:35.603Z,13.95
2018-03-12T23:17:03.959Z,13.89
2018-03-12T23:19:32.289Z,13.88
2018-03-12T23:22:02.460Z,13.98
2018-03-12T23:24:30.813Z,14.14
2018-03-12T23:26:59.489Z,14.23
2018-03-12T23:29:28.526Z,14.25
2018-03-12T23:31:56.873Z,14.26
2018-03-12T23:34:25.187Z,14.21
2018-03-12T23:36:53.523Z,14.08
2018-03-12T23:39:21.867Z,13.96
2018-03-12T23:41:50.213Z,13.83
2018-03-12T23:44:18.620Z,13.66
2018-03-12T23:46:46.948Z,13.49
2018-03-12T23:49:15.289Z,13.31
2018-03-12T23:51:43.618Z,13.18
2018-03-12T23:54:11.932Z,13.30
2018-03-12T23:56:40.241Z,13.28
2018-03-12T23:59:09.341Z,13.25
